Terminal Aerodrome Forecast
Issued by NWS

Home | Current Version | Previous Version | Text Only | Print | Product List | Glossary Off
Versions: 1 2 3 4 5 6 7 8 9 10 11 12 13 14 15 16 17 18 19 20

000
FTUS43 KIWX 182300 RRA
TAFSBN
TAF
KSBN 182339Z 1900/1924 18003KT P6SM SCT035
     FM190900 20005KT 5SM BR VCSH SCT015 BKN035
     FM191500 20012KT P6SM SCT020 BKN040=

USA.gov is the U.S. government's official web portal to all federal, state and local government web resources and services.